Time;durP1;ratioP1;P1;durP2;ratioP2;P2;SDS_P1;SDS_P2;PMS_P1;PMS_P2;Temp;Humidity;BMP_temperature;BMP_pressure;BME280_temperature;BME280_humidity;BME280_pressure;Samples;Min_cycle;Max_cycle;Signal;HPM_P1;HPM_P2
2023/06/17 00:02:11;;;;;;;5.60;5.10;;;28.50;37.80;;;;;;5026392;28;20449;-67
2023/06/17 00:04:39;;;;;;;5.77;5.37;;;28.50;37.80;;;;;;5013600;28;20455;-67
2023/06/17 00:07:08;;;;;;;5.23;4.83;;;28.50;37.90;;;;;;5019328;28;20476;-67
2023/06/17 00:09:38;;;;;;;6.03;5.30;;;28.50;37.80;;;;;;5023253;28;20464;-67
2023/06/17 00:12:09;;;;;;;4.70;4.30;;;28.50;37.80;;;;;;5020205;28;20924;-68
2023/06/17 00:14:40;;;;;;;5.50;5.00;;;28.50;37.80;;;;;;5039873;28;20459;-67
2023/06/17 00:17:10;;;;;;;5.87;5.37;;;28.50;37.80;;;;;;5019044;28;20984;-68
2023/06/17 00:19:40;;;;;;;4.83;4.43;;;28.50;37.80;;;;;;5015300;28;21035;-67
2023/06/17 00:22:09;;;;;;;5.13;4.73;;;28.50;37.80;;;;;;5024110;28;20491;-68
2023/06/17 00:24:37;;;;;;;6.07;5.57;;;28.50;37.90;;;;;;5017286;28;20433;-67
2023/06/17 00:27:08;;;;;;;5.83;5.43;;;28.50;37.90;;;;;;5018838;28;20868;-67
2023/06/17 00:29:37;;;;;;;6.23;5.00;;;28.50;37.90;;;;;;5038835;28;20617;-68
2023/06/17 00:32:06;;;;;;;5.70;5.20;;;28.50;38.00;;;;;;5036262;28;20432;-68
2023/06/17 00:34:35;;;;;;;6.10;5.20;;;28.50;38.00;;;;;;5015969;28;20481;-68
2023/06/17 00:37:04;;;;;;;4.30;4.00;;;28.50;37.90;;;;;;5016976;28;20480;-67
2023/06/17 00:39:33;;;;;;;4.60;4.30;;;28.50;38.00;;;;;;5008548;28;20456;-67
2023/06/17 00:42:02;;;;;;;5.93;4.93;;;28.50;38.00;;;;;;5020720;28;20440;-66
2023/06/17 00:44:32;;;;;;;4.60;4.30;;;28.50;38.10;;;;;;5013685;28;20499;-68
2023/06/17 00:47:00;;;;;;;5.20;4.70;;;28.40;38.00;;;;;;5027520;28;20484;-67
2023/06/17 00:49:35;;;;;;;4.90;4.50;;;28.40;38.00;;;;;;5038263;28;20528;-68
2023/06/17 00:52:06;;;;;;;4.80;4.40;;;28.40;38.10;;;;;;5036223;28;20433;-67
2023/06/17 00:54:56;;;;;;;5.80;5.40;;;28.40;38.00;;;;;;5013244;28;20465;-67
2023/06/17 00:57:24;;;;;;;5.30;4.90;;;28.40;38.10;;;;;;5028015;28;20476;-68
2023/06/17 00:59:54;;;;;;;5.97;5.47;;;28.40;38.10;;;;;;5024360;28;20437;-68
2023/06/17 01:02:25;;;;;;;5.90;5.10;;;28.40;38.10;;;;;;5023386;28;20444;-68
2023/06/17 01:04:55;;;;;;;5.10;4.70;;;28.40;38.10;;;;;;5016443;28;20462;-68
2023/06/17 01:07:35;;;;;;;4.93;4.53;;;28.40;38.10;;;;;;5019253;28;20467;-68
2023/06/17 01:10:09;;;;;;;5.30;4.80;;;28.40;38.20;;;;;;5022053;28;20434;-68
2023/06/17 01:12:38;;;;;;;6.00;5.50;;;28.40;38.30;;;;;;5009257;28;20443;-65
2023/06/17 01:15:10;;;;;;;5.43;4.93;;;28.40;38.30;;;;;;5011015;28;20954;-67
2023/06/17 01:17:44;;;;;;;5.63;4.90;;;28.30;38.30;;;;;;5024275;28;20527;-67
2023/06/17 01:20:16;;;;;;;4.90;4.50;;;28.30;38.40;;;;;;5031565;28;20441;-66
2023/06/17 01:22:46;;;;;;;5.10;4.70;;;28.30;38.30;;;;;;5030445;28;20452;-68
2023/06/17 01:25:16;;;;;;;5.30;4.90;;;28.30;38.30;;;;;;5016088;28;20496;-67
2023/06/17 01:27:46;;;;;;;5.67;5.27;;;28.40;38.40;;;;;;5015123;28;20868;-66
2023/06/17 01:30:15;;;;;;;5.50;5.00;;;28.30;38.30;;;;;;5032177;28;20444;-68
2023/06/17 01:32:43;;;;;;;5.43;5.03;;;28.30;38.40;;;;;;5032267;28;20503;-67
2023/06/17 01:35:14;;;;;;;6.90;5.43;;;28.30;38.40;;;;;;5020899;28;20479;-67
2023/06/17 01:37:47;;;;;;;5.27;4.77;;;28.30;38.40;;;;;;5039266;28;20472;-67
2023/06/17 01:40:21;;;;;;;5.47;5.07;;;28.30;38.40;;;;;;5020636;28;20965;-67
2023/06/17 01:42:53;;;;;;;5.97;4.60;;;28.30;38.30;;;;;;5025612;28;20457;-67
2023/06/17 01:45:24;;;;;;;5.67;5.07;;;28.30;38.40;;;;;;5036551;28;20455;-68
2023/06/17 01:47:53;;;;;;;5.63;5.13;;;28.30;38.40;;;;;;5027532;28;20810;-68
2023/06/17 01:50:21;;;;;;;5.57;5.07;;;28.30;38.50;;;;;;5031108;28;20507;-68
2023/06/17 01:52:50;;;;;;;4.73;4.10;;;28.30;38.50;;;;;;5026133;28;20441;-67
2023/06/17 01:55:20;;;;;;;5.13;4.73;;;28.30;38.60;;;;;;5022620;28;20440;-68
2023/06/17 01:57:49;;;;;;;5.20;4.80;;;28.20;38.50;;;;;;5034633;28;20476;-67
2023/06/17 02:00:18;;;;;;;5.20;4.80;;;28.20;38.50;;;;;;5024425;28;20778;-68
2023/06/17 02:02:52;;;;;;;5.20;4.80;;;28.20;38.50;;;;;;5016142;28;20535;-66
2023/06/17 02:05:24;;;;;;;4.90;4.50;;;28.20;38.50;;;;;;5043596;28;20455;-68
2023/06/17 02:07:53;;;;;;;5.20;4.70;;;28.20;38.60;;;;;;5028687;28;20507;-68
2023/06/17 02:10:23;;;;;;;4.93;4.57;;;28.20;38.70;;;;;;5035382;28;20836;-67
2023/06/17 02:12:52;;;;;;;5.47;5.03;;;28.20;38.60;;;;;;5027751;28;20480;-68
2023/06/17 02:15:21;;;;;;;4.80;4.37;;;28.20;38.70;;;;;;5038487;28;20441;-67
2023/06/17 02:17:51;;;;;;;4.80;4.40;;;28.20;38.70;;;;;;5033873;28;20482;-68
2023/06/17 02:20:21;;;;;;;4.93;4.53;;;28.20;38.70;;;;;;5026938;28;20445;-68
2023/06/17 02:22:50;;;;;;;5.17;4.77;;;28.20;38.80;;;;;;5021927;28;20535;-66
2023/06/17 02:25:18;;;;;;;5.03;4.70;;;28.20;38.90;;;;;;5030899;28;20960;-68
2023/06/17 02:27:48;;;;;;;4.47;4.17;;;28.20;38.90;;;;;;5014250;28;20480;-66
2023/06/17 02:30:17;;;;;;;5.33;4.93;;;28.20;38.90;;;;;;5046805;28;20428;-68
2023/06/17 02:32:47;;;;;;;4.50;4.10;;;28.10;38.80;;;;;;5023199;28;20451;-67
2023/06/17 02:35:15;;;;;;;4.50;4.10;;;28.10;38.80;;;;;;5032007;28;20536;-67
2023/06/17 02:37:44;;;;;;;4.30;4.00;;;28.10;38.80;;;;;;5035789;28;20560;-68
2023/06/17 02:40:13;;;;;;;5.17;4.77;;;28.10;38.90;;;;;;5033334;28;20441;-67
2023/06/17 02:42:42;;;;;;;4.20;3.90;;;28.10;38.90;;;;;;5022969;28;20878;-67
2023/06/17 02:45:12;;;;;;;5.10;4.70;;;28.10;38.90;;;;;;5039637;28;20430;-68
2023/06/17 02:47:42;;;;;;;5.33;4.90;;;28.10;38.90;;;;;;5026967;28;20490;-67
2023/06/17 02:50:11;;;;;;;4.27;4.07;;;28.10;39.10;;;;;;5030934;28;20495;-68
2023/06/17 02:52:40;;;;;;;5.10;4.70;;;28.10;39.00;;;;;;5030527;28;20812;-68
2023/06/17 02:55:09;;;;;;;4.63;4.23;;;28.10;39.10;;;;;;5037624;28;20530;-67
2023/06/17 02:57:38;;;;;;;4.87;4.47;;;28.10;39.10;;;;;;5032772;28;21767;-67
2023/06/17 03:00:10;;;;;;;5.00;4.60;;;28.10;39.10;;;;;;5023844;28;20436;-68
2023/06/17 03:02:40;;;;;;;5.20;4.80;;;28.10;39.10;;;;;;5024192;28;22401;-67
2023/06/17 03:05:09;;;;;;;4.60;4.30;;;28.10;39.20;;;;;;5025807;28;20477;-67
2023/06/17 03:07:40;;;;;;;5.30;4.90;;;28.00;39.30;;;;;;5024348;28;20562;-67
2023/06/17 03:10:10;;;;;;;4.57;4.27;;;28.00;39.10;;;;;;5020654;28;20469;-67
2023/06/17 03:12:45;;;;;;;3.97;3.67;;;28.00;39.30;;;;;;5026020;28;20456;-67
2023/06/17 03:15:17;;;;;;;4.67;4.27;;;28.00;39.30;;;;;;5022178;28;20498;-66
2023/06/17 03:17:47;;;;;;;4.67;4.30;;;28.00;39.30;;;;;;5017203;28;20846;-67
2023/06/17 03:20:16;;;;;;;6.00;5.50;;;28.00;39.30;;;;;;5024512;28;20451;-67
2023/06/17 03:22:44;;;;;;;5.07;4.67;;;28.00;39.30;;;;;;5008190;28;20487;-67
2023/06/17 03:25:13;;;;;;;5.23;4.83;;;28.00;39.40;;;;;;5027814;28;20807;-67
2023/06/17 03:27:41;;;;;;;4.93;4.53;;;28.00;39.40;;;;;;5031663;28;20477;-67
2023/06/17 03:30:11;;;;;;;5.00;4.60;;;28.00;39.50;;;;;;5043134;28;20920;-67
2023/06/17 03:32:40;;;;;;;5.27;4.87;;;28.00;39.50;;;;;;5023592;28;20445;-67
2023/06/17 03:35:10;;;;;;;4.17;3.77;;;27.90;39.40;;;;;;5022802;28;20448;-67
2023/06/17 03:37:39;;;;;;;5.33;4.80;;;27.90;39.50;;;;;;5024570;28;20474;-67
2023/06/17 03:40:10;;;;;;;4.67;4.27;;;27.90;39.50;;;;;;5023721;28;20432;-67
2023/06/17 03:42:39;;;;;;;4.47;4.07;;;27.90;39.60;;;;;;5039132;28;20951;-67
2023/06/17 03:45:09;;;;;;;5.00;4.60;;;27.90;39.70;;;;;;5020007;28;20455;-67
2023/06/17 03:47:38;;;;;;;5.20;4.07;;;27.90;39.60;;;;;;5007431;28;20481;-67
2023/06/17 03:50:08;;;;;;;4.80;4.40;;;27.90;39.70;;;;;;5026330;28;20440;-67
2023/06/17 03:52:38;;;;;;;5.17;4.77;;;27.90;39.70;;;;;;5025632;28;20880;-67
2023/06/17 03:55:07;;;;;;;4.00;3.70;;;27.90;39.70;;;;;;5021730;28;20439;-67
2023/06/17 03:57:37;;;;;;;4.87;4.47;;;27.80;39.80;;;;;;5039316;28;20881;-67
2023/06/17 04:00:07;;;;;;;5.77;4.17;;;27.80;39.80;;;;;;5029067;28;20429;-67
2023/06/17 04:02:44;;;;;;;4.67;4.27;;;27.80;39.80;;;;;;5010502;28;20444;-67
2023/06/17 04:05:21;;;;;;;5.80;4.37;;;27.90;39.90;;;;;;5021623;28;20447;-68
2023/06/17 04:07:51;;;;;;;5.47;4.97;;;27.80;40.00;;;;;;5031204;28;20875;-67
2023/06/17 04:10:20;;;;;;;4.70;4.30;;;27.80;40.00;;;;;;5027323;28;20456;-67
2023/06/17 04:12:48;;;;;;;5.13;4.73;;;27.80;40.00;;;;;;5040485;28;20440;-68
2023/06/17 04:15:17;;;;;;;5.00;4.60;;;27.80;39.90;;;;;;5010679;28;20433;-68
2023/06/17 04:17:45;;;;;;;4.00;3.70;;;27.80;40.00;;;;;;5022616;28;20464;-68
2023/06/17 04:20:14;;;;;;;5.47;4.10;;;27.80;40.00;;;;;;5029207;28;20511;-67
2023/06/17 04:22:44;;;;;;;4.77;4.33;;;27.80;40.00;;;;;;5021515;28;21082;-67
2023/06/17 04:25:20;;;;;;;4.40;4.00;;;27.80;40.10;;;;;;5006044;28;20437;-67
2023/06/17 04:27:53;;;;;;;4.70;4.40;;;27.80;40.20;;;;;;5037909;28;20464;-66
2023/06/17 04:30:25;;;;;;;4.50;4.10;;;27.80;40.20;;;;;;5017014;28;21077;-67
2023/06/17 04:32:58;;;;;;;5.13;4.73;;;27.80;40.20;;;;;;5025487;28;20551;-66
2023/06/17 04:35:27;;;;;;;4.20;3.90;;;27.70;40.20;;;;;;5040522;28;20458;-67
2023/06/17 04:37:57;;;;;;;4.30;4.00;;;27.70;40.20;;;;;;5026787;28;21063;-67
2023/06/17 04:40:27;;;;;;;4.60;4.20;;;27.70;40.30;;;;;;5030497;28;20479;-67
2023/06/17 04:42:56;;;;;;;4.50;4.20;;;27.70;40.50;;;;;;5030050;28;20447;-67
2023/06/17 04:45:27;;;;;;;5.33;4.83;;;27.70;40.30;;;;;;5013006;28;20467;-67
2023/06/17 04:48:03;;;;;;;4.70;4.30;;;27.70;40.50;;;;;;5031202;28;21010;-65
2023/06/17 04:50:33;;;;;;;4.10;3.80;;;27.70;40.90;;;;;;5022686;28;20446;-67
2023/06/17 04:53:03;;;;;;;4.77;4.30;;;27.70;41.10;;;;;;5022563;28;20460;-67
2023/06/17 04:55:37;;;;;;;4.53;4.23;;;27.70;41.00;;;;;;5022581;28;20430;-67
2023/06/17 04:58:09;;;;;;;4.60;4.10;;;27.70;41.10;;;;;;5038938;28;20496;-67
2023/06/17 05:00:50;;;;;;;5.03;4.53;;;27.70;41.00;;;;;;5025227;28;20428;-66
2023/06/17 05:03:26;;;;;;;4.90;4.40;;;27.70;40.80;;;;;;5031895;28;20859;-67
2023/06/17 05:05:56;;;;;;;4.97;4.57;;;27.70;40.70;;;;;;5015633;28;20462;-68
2023/06/17 05:08:29;;;;;;;4.10;3.80;;;27.70;40.70;;;;;;5037333;28;20429;-67
2023/06/17 05:11:01;;;;;;;4.67;4.27;;;27.60;40.60;;;;;;5038407;28;20440;-67
2023/06/17 05:13:31;;;;;;;4.63;4.27;;;27.60;40.60;;;;;;5014789;28;20476;-68
2023/06/17 05:16:00;;;;;;;5.10;4.70;;;27.60;40.80;;;;;;5031721;28;20497;-67
2023/06/17 05:18:31;;;;;;;4.60;4.20;;;27.60;40.60;;;;;;5024752;28;20456;-67
2023/06/17 05:21:00;;;;;;;5.00;4.60;;;27.60;40.60;;;;;;5032236;28;20539;-66
2023/06/17 05:23:28;;;;;;;4.77;4.47;;;27.60;40.60;;;;;;5028565;28;20876;-68
2023/06/17 05:25:57;;;;;;;4.93;4.50;;;27.60;40.50;;;;;;5045755;28;20452;-67
2023/06/17 05:28:27;;;;;;;5.63;4.07;;;27.60;40.60;;;;;;5033012;28;20474;-68
2023/06/17 05:30:55;;;;;;;4.00;3.70;;;27.60;40.70;;;;;;5004465;28;20447;-68
2023/06/17 05:33:24;;;;;;;4.13;3.83;;;27.60;40.60;;;;;;5021042;28;20564;-68
2023/06/17 05:35:54;;;;;;;4.53;4.20;;;27.60;40.80;;;;;;5032847;28;20510;-67
2023/06/17 05:38:22;;;;;;;4.87;4.50;;;27.60;40.60;;;;;;5028576;28;20471;-67
2023/06/17 05:40:51;;;;;;;4.70;4.30;;;27.60;40.60;;;;;;5034089;28;20430;-67
2023/06/17 05:43:20;;;;;;;4.70;4.30;;;27.60;40.40;;;;;;5021437;28;20480;-67
2023/06/17 05:45:50;;;;;;;5.67;4.47;;;27.60;40.30;;;;;;5010270;28;20457;-67
2023/06/17 05:48:19;;;;;;;5.33;4.93;;;27.60;40.10;;;;;;5020159;28;20585;-67
2023/06/17 05:50:48;;;;;;;5.03;4.50;;;27.60;40.20;;;;;;5024087;28;20491;-65
2023/06/17 05:53:17;;;;;;;4.10;3.80;;;27.60;40.00;;;;;;5034544;28;20555;-68
2023/06/17 05:55:46;;;;;;;4.90;4.47;;;27.60;40.20;;;;;;5008618;28;20449;-67
2023/06/17 05:58:14;;;;;;;4.70;4.27;;;27.60;40.30;;;;;;5016902;28;20478;-67
2023/06/17 06:00:53;;;;;;;4.20;3.90;;;27.60;40.30;;;;;;5033820;28;20432;-67
2023/06/17 06:03:21;;;;;;;4.83;4.43;;;27.60;40.20;;;;;;5025359;28;20571;-67
2023/06/17 06:05:50;;;;;;;4.97;4.43;;;27.60;40.00;;;;;;5023943;28;21028;-66
2023/06/17 06:08:20;;;;;;;4.53;4.07;;;27.60;40.10;;;;;;5038585;28;20471;-67
2023/06/17 06:10:48;;;;;;;4.10;3.80;;;27.60;40.20;;;;;;5032453;28;20958;-68
2023/06/17 06:13:17;;;;;;;5.17;4.87;;;27.60;40.20;;;;;;5011196;28;20547;-67
2023/06/17 06:15:46;;;;;;;4.20;3.90;;;27.60;40.40;;;;;;5034342;28;20437;-66
2023/06/17 06:18:17;;;;;;;4.00;3.70;;;27.60;40.30;;;;;;5039781;28;21022;-67
2023/06/17 06:20:46;;;;;;;4.80;4.40;;;27.60;40.20;;;;;;5026383;28;21022;-66
2023/06/17 06:23:15;;;;;;;4.30;3.90;;;27.60;40.10;;;;;;5020399;28;20845;-72
2023/06/17 06:25:43;;;;;;;4.37;4.07;;;27.60;40.30;;;;;;5035070;28;20438;-71
2023/06/17 06:28:11;;;;;;;4.73;4.20;;;27.60;40.30;;;;;;5032149;28;21021;-71
2023/06/17 06:30:40;;;;;;;4.73;4.23;;;27.60;39.80;;;;;;5026760;28;20955;-72
2023/06/17 06:33:09;;;;;;;4.97;4.53;;;27.60;40.00;;;;;;5024857;28;20445;-72
2023/06/17 06:35:38;;;;;;;3.73;3.43;;;27.60;40.20;;;;;;5014297;28;20453;-71
2023/06/17 06:38:11;;;;;;;4.60;4.20;;;27.60;40.30;;;;;;5035774;28;20473;-71
2023/06/17 06:40:41;;;;;;;4.70;4.30;;;27.60;39.90;;;;;;5037699;28;20988;-71
2023/06/17 06:43:09;;;;;;;5.87;5.23;;;27.60;39.80;;;;;;5028663;28;20498;-71
2023/06/17 06:46:01;;;;;;;5.27;4.77;;;27.60;39.80;;;;;;5024890;28;21004;-72
2023/06/17 06:48:30;;;;;;;4.57;4.17;;;27.60;39.50;;;;;;5028414;28;20840;-71
2023/06/17 06:51:01;;;;;;;4.60;4.20;;;27.60;39.70;;;;;;5027463;28;20817;-73
2023/06/17 06:53:30;;;;;;;5.10;3.97;;;27.60;39.50;;;;;;5037803;28;20549;-71
2023/06/17 06:55:59;;;;;;;4.47;4.07;;;27.60;39.60;;;;;;5025403;28;20526;-72
2023/06/17 06:58:34;;;;;;;4.70;4.30;;;27.60;39.70;;;;;;5030747;28;20475;-72
2023/06/17 07:01:02;;;;;;;4.10;3.80;;;27.60;39.40;;;;;;5022804;28;20519;-72
2023/06/17 07:03:31;;;;;;;4.90;4.60;;;27.50;39.50;;;;;;5017252;28;20475;-71
2023/06/17 07:06:01;;;;;;;5.03;4.63;;;27.60;39.10;;;;;;5020799;28;20467;-71
2023/06/17 07:08:31;;;;;;;6.33;4.73;;;27.60;39.40;;;;;;5018304;28;20477;-72
2023/06/17 07:10:59;;;;;;;6.27;4.20;;;27.60;38.80;;;;;;5035843;28;20447;-71
2023/06/17 07:13:28;;;;;;;4.80;4.40;;;27.60;38.30;;;;;;5033301;28;21042;-72
2023/06/17 07:15:57;;;;;;;5.00;4.50;;;27.60;38.60;;;;;;5026794;28;20551;-70
2023/06/17 07:18:26;;;;;;;5.63;4.30;;;27.60;38.40;;;;;;5018507;28;21056;-72
2023/06/17 07:20:55;;;;;;;4.87;4.43;;;27.50;38.30;;;;;;5026075;28;20473;-72
2023/06/17 07:23:26;;;;;;;4.17;3.77;;;27.50;37.90;;;;;;5018181;28;20472;-72
2023/06/17 07:25:55;;;;;;;4.80;4.40;;;27.50;38.10;;;;;;5040874;28;20456;-71
2023/06/17 07:28:24;;;;;;;4.93;4.53;;;27.50;38.20;;;;;;5023052;28;20563;-70
2023/06/17 07:30:53;;;;;;;6.87;5.00;;;27.50;38.30;;;;;;5032614;28;20432;-71
2023/06/17 07:33:21;;;;;;;4.80;4.40;;;27.50;38.60;;;;;;5037334;28;20474;-72
2023/06/17 07:35:50;;;;;;;4.50;4.10;;;27.50;38.70;;;;;;5022384;28;20511;-72
2023/06/17 07:38:19;;;;;;;6.10;5.00;;;27.50;38.90;;;;;;5021814;28;20556;-70
2023/06/17 07:40:50;;;;;;;6.07;5.57;;;27.60;36.70;;;;;;5025279;28;20510;-71
2023/06/17 07:43:19;;;;;;;6.03;5.43;;;27.50;36.30;;;;;;5031345;28;20807;-72
2023/06/17 07:45:48;;;;;;;8.70;4.80;;;27.50;36.90;;;;;;5023320;28;20469;-71
2023/06/17 07:48:17;;;;;;;5.10;4.60;;;27.50;36.50;;;;;;5028289;28;20718;-73
2023/06/17 07:50:46;;;;;;;5.67;4.77;;;27.50;37.90;;;;;;5038202;28;20451;-71
2023/06/17 07:53:15;;;;;;;4.43;4.03;;;27.50;37.40;;;;;;5023371;28;20816;-73
2023/06/17 07:55:44;;;;;;;5.53;5.03;;;27.50;38.00;;;;;;5015447;28;20425;-72
2023/06/17 07:58:14;;;;;;;5.13;4.73;;;27.50;38.30;;;;;;5023406;28;20443;-72
2023/06/17 08:00:43;;;;;;;5.20;4.77;;;27.50;38.10;;;;;;5024128;28;20916;-72
2023/06/17 08:03:13;;;;;;;4.50;4.17;;;27.50;38.40;;;;;;5032380;28;20501;-72
2023/06/17 08:05:43;;;;;;;5.03;4.63;;;27.50;38.80;;;;;;5032234;28;20456;-72
2023/06/17 08:08:12;;;;;;;5.20;4.80;;;27.50;38.90;;;;;;5014217;28;20439;-67
2023/06/17 08:10:40;;;;;;;4.97;4.53;;;27.50;38.90;;;;;;5040297;28;20440;-66
2023/06/17 08:13:08;;;;;;;4.87;3.93;;;27.50;39.10;;;;;;5022649;28;20525;-68
2023/06/17 08:15:38;;;;;;;4.80;4.40;;;27.50;39.30;;;;;;5007110;28;20448;-67
2023/06/17 08:18:07;;;;;;;5.20;4.63;;;27.50;39.40;;;;;;5035468;28;20459;-67
2023/06/17 08:20:36;;;;;;;4.07;3.77;;;27.50;39.40;;;;;;5022025;28;20472;-68
2023/06/17 08:23:05;;;;;;;4.57;4.20;;;27.50;39.40;;;;;;5020148;28;20472;-67
2023/06/17 08:25:34;;;;;;;6.80;4.80;;;27.40;39.70;;;;;;5023405;28;20486;-68
2023/06/17 08:28:03;;;;;;;4.70;4.30;;;27.50;39.80;;;;;;5026579;28;20444;-67
2023/06/17 08:30:32;;;;;;;3.87;3.60;;;27.50;39.80;;;;;;5030350;28;20976;-66
2023/06/17 08:33:02;;;;;;;4.00;3.70;;;27.40;39.70;;;;;;5017805;28;20456;-67
2023/06/17 08:35:31;;;;;;;4.10;3.80;;;27.40;39.90;;;;;;5019686;28;20445;-67
2023/06/17 08:37:59;;;;;;;4.67;4.27;;;27.40;39.90;;;;;;5016933;28;20519;-65
2023/06/17 08:40:29;;;;;;;4.33;3.97;;;27.40;40.00;;;;;;5017375;28;20645;-67
2023/06/17 08:43:02;;;;;;;4.60;4.20;;;27.40;40.10;;;;;;5021304;28;20510;-67
2023/06/17 08:45:31;;;;;;;4.33;4.03;;;27.40;40.10;;;;;;5037156;28;20447;-67
2023/06/17 08:48:02;;;;;;;4.30;4.00;;;27.40;40.00;;;;;;5026135;28;20547;-66
2023/06/17 08:50:33;;;;;;;4.07;3.77;;;27.40;39.90;;;;;;5018266;28;20514;-67
2023/06/17 08:53:03;;;;;;;5.03;4.03;;;27.40;39.90;;;;;;5034158;28;21086;-67
2023/06/17 08:55:33;;;;;;;4.73;4.33;;;27.40;40.00;;;;;;5038078;28;20439;-71
2023/06/17 08:58:03;;;;;;;4.37;4.00;;;27.40;40.10;;;;;;5032787;28;20450;-73
2023/06/17 09:00:33;;;;;;;4.90;3.80;;;27.40;40.10;;;;;;5020293;28;20972;-66
2023/06/17 09:03:07;;;;;;;4.30;4.00;;;27.40;40.10;;;;;;5025130;28;20996;-66
2023/06/17 09:05:37;;;;;;;4.50;4.10;;;27.40;41.00;;;;;;5026941;28;20967;-66
2023/06/17 09:08:06;;;;;;;4.20;3.90;;;27.40;41.00;;;;;;5030334;28;21020;-67
2023/06/17 09:10:43;;;;;;;4.60;4.20;;;27.40;40.70;;;;;;5019286;28;20455;-67
2023/06/17 09:13:12;;;;;;;4.50;4.20;;;27.40;41.10;;;;;;5018307;28;20483;-67
2023/06/17 09:15:44;;;;;;;5.17;4.77;;;27.40;41.00;;;;;;5040015;28;20439;-68
2023/06/17 09:18:16;;;;;;;4.23;3.93;;;27.40;41.00;;;;;;5039587;28;20471;-68
2023/06/17 09:20:51;;;;;;;4.13;3.83;;;27.40;41.10;;;;;;5037706;28;20735;-66
2023/06/17 09:23:21;;;;;;;4.30;3.90;;;27.40;41.00;;;;;;5014436;28;20984;-66
2023/06/17 09:26:00;;;;;;;4.40;4.00;;;27.40;41.00;;;;;;5033861;28;20451;-67
2023/06/17 09:28:28;;;;;;;4.77;4.47;;;27.40;41.10;;;;;;5038914;28;20494;-66
2023/06/17 09:30:59;;;;;;;11.50;5.70;;;27.40;40.90;;;;;;5021609;28;20498;-65
2023/06/17 09:33:29;;;;;;;12.37;6.50;;;27.60;38.20;;;;;;5038839;28;20488;-67
2023/06/17 09:36:01;;;;;;;6.57;5.83;;;27.60;34.80;;;;;;5013983;28;20464;-68
2023/06/17 09:38:30;;;;;;;7.77;5.40;;;27.50;32.40;;;;;;5039836;28;21209;-68
2023/06/17 09:40:59;;;;;;;8.50;5.60;;;27.40;32.40;;;;;;5027648;28;20861;-69
2023/06/17 09:43:29;;;;;;;7.50;6.63;;;27.30;32.80;;;;;;5019631;28;20479;-71
2023/06/17 09:46:04;;;;;;;7.60;6.90;;;27.10;32.10;;;;;;5018190;28;20469;-72
2023/06/17 09:48:37;;;;;;;7.37;6.67;;;27.00;31.30;;;;;;5016561;28;20816;-67
2023/06/17 09:51:09;;;;;;;6.70;6.07;;;26.90;31.70;;;;;;5026291;28;20956;-66
2023/06/17 09:53:39;;;;;;;5.50;4.77;;;26.90;33.10;;;;;;5014224;28;20497;-67
2023/06/17 09:56:10;;;;;;;6.67;5.20;;;27.00;33.70;;;;;;5017187;28;20590;-68
2023/06/17 09:58:42;;;;;;;5.70;5.20;;;27.00;34.10;;;;;;5013748;28;20527;-67
2023/06/17 10:01:13;;;;;;;7.03;5.60;;;27.10;34.80;;;;;;5025859;28;20456;-67
2023/06/17 10:03:45;;;;;;;6.37;5.77;;;27.10;35.40;;;;;;5034964;28;20525;-66
2023/06/17 10:06:19;;;;;;;5.93;5.43;;;27.20;35.90;;;;;;4997031;28;20522;-67
2023/06/17 10:08:50;;;;;;;7.63;5.70;;;27.20;36.20;;;;;;5028773;28;21009;-67
2023/06/17 10:11:20;;;;;;;5.83;5.03;;;27.20;36.00;;;;;;5017983;28;20463;-67
2023/06/17 10:13:54;;;;;;;6.03;5.23;;;27.20;36.40;;;;;;5038777;28;20510;-65
2023/06/17 10:16:26;;;;;;;5.80;5.40;;;27.20;36.70;;;;;;5021486;28;21025;-66
2023/06/17 10:19:00;;;;;;;5.97;5.40;;;27.20;36.90;;;;;;5026623;28;20478;-67
2023/06/17 10:21:30;;;;;;;5.30;4.90;;;27.20;37.10;;;;;;5017632;28;21036;-67
2023/06/17 10:24:01;;;;;;;5.47;4.93;;;27.30;37.20;;;;;;5020128;28;20476;-67
2023/06/17 10:26:30;;;;;;;6.27;5.67;;;27.30;37.10;;;;;;5038603;28;20472;-67
2023/06/17 10:29:02;;;;;;;5.93;5.43;;;27.30;36.90;;;;;;5028618;28;21003;-69
2023/06/17 10:31:31;;;;;;;5.43;4.93;;;27.30;36.20;;;;;;5029637;28;20473;-66
2023/06/17 10:34:03;;;;;;;6.23;5.70;;;27.20;36.60;;;;;;5025140;28;20802;-68
2023/06/17 10:36:35;;;;;;;5.23;4.90;;;27.30;37.10;;;;;;5024812;28;20468;-67
2023/06/17 10:39:07;;;;;;;5.40;5.00;;;27.30;37.40;;;;;;5015674;28;20859;-67
2023/06/17 10:41:57;;;;;;;5.70;5.30;;;27.30;37.40;;;;;;5023395;28;20466;-68
2023/06/17 10:44:43;;;;;;;6.23;5.47;;;27.30;37.20;;;;;;5008106;28;20476;-67
2023/06/17 10:47:22;;;;;;;5.60;5.10;;;27.30;37.20;;;;;;5023799;28;20452;-66
2023/06/17 10:49:55;;;;;;;5.80;5.30;;;27.30;36.90;;;;;;5041164;28;21914;-67
2023/06/17 10:52:23;;;;;;;4.70;4.30;;;27.30;37.10;;;;;;5039359;28;20468;-66
2023/06/17 10:54:54;;;;;;;6.07;5.37;;;27.30;37.50;;;;;;5031748;28;20436;-68
2023/06/17 10:57:33;;;;;;;5.60;5.10;;;27.30;37.50;;;;;;5013380;28;20471;-66
2023/06/17 11:00:06;;;;;;;6.13;5.63;;;27.40;37.50;;;;;;5015649;28;20917;-68
2023/06/17 11:02:37;;;;;;;6.13;5.53;;;27.30;37.80;;;;;;5013246;28;20468;-70
2023/06/17 11:05:08;;;;;;;5.67;5.17;;;27.30;38.10;;;;;;5025704;28;20543;-72
2023/06/17 11:07:37;;;;;;;5.47;5.07;;;27.40;38.00;;;;;;5026145;28;20488;-72
2023/06/17 11:10:06;;;;;;;5.03;4.63;;;27.40;37.80;;;;;;5032327;28;20452;-71
2023/06/17 11:12:35;;;;;;;5.40;5.00;;;27.40;37.90;;;;;;5036392;28;20976;-72
2023/06/17 11:15:07;;;;;;;4.73;4.40;;;27.30;37.80;;;;;;5013514;28;20440;-72
2023/06/17 11:17:36;;;;;;;5.13;4.73;;;27.40;37.70;;;;;;5033620;28;20463;-71
2023/06/17 11:20:07;;;;;;;5.73;5.27;;;27.40;37.90;;;;;;5024174;28;20453;-72
2023/06/17 11:22:39;;;;;;;4.50;4.10;;;27.40;38.10;;;;;;5011476;28;20561;-71
2023/06/17 11:25:11;;;;;;;5.97;5.47;;;27.40;38.10;;;;;;5013074;28;20491;-72
2023/06/17 11:27:40;;;;;;;5.47;5.00;;;27.40;38.30;;;;;;5025139;28;20480;-73
2023/06/17 11:30:12;;;;;;;5.30;4.90;;;27.40;38.00;;;;;;5026060;28;20471;-72
2023/06/17 11:32:42;;;;;;;5.23;4.73;;;27.40;37.70;;;;;;5025187;28;20552;-71
2023/06/17 11:35:13;;;;;;;5.03;4.73;;;27.40;37.80;;;;;;5023449;28;20527;-72
2023/06/17 11:37:43;;;;;;;4.87;4.47;;;27.40;37.80;;;;;;5042234;28;21207;-73
2023/06/17 11:40:12;;;;;;;4.73;4.33;;;27.40;38.10;;;;;;5024601;28;20979;-72
2023/06/17 11:42:46;;;;;;;5.33;4.83;;;27.40;38.10;;;;;;5021980;28;20504;-72
2023/06/17 11:45:15;;;;;;;4.20;3.90;;;27.40;38.30;;;;;;5021616;28;20498;-73
2023/06/17 11:47:43;;;;;;;5.40;4.97;;;27.40;37.50;;;;;;5010728;28;20518;-70
2023/06/17 11:50:14;;;;;;;5.20;4.80;;;27.40;38.30;;;;;;5027454;28;20474;-68
2023/06/17 11:52:52;;;;;;;4.47;4.17;;;27.40;38.50;;;;;;5023709;28;20550;-68
2023/06/17 11:55:29;;;;;;;4.70;4.30;;;27.50;38.90;;;;;;5021330;28;20455;-66
2023/06/17 11:57:58;;;;;;;5.03;4.63;;;27.50;38.40;;;;;;5021404;28;20473;-66
2023/06/17 12:00:27;;;;;;;5.23;4.83;;;27.40;38.30;;;;;;5007929;28;20432;-67
2023/06/17 12:02:56;;;;;;;4.93;4.53;;;27.50;38.80;;;;;;5032906;28;20483;-67
2023/06/17 12:05:30;;;;;;;4.63;4.33;;;27.50;38.80;;;;;;5023305;28;20444;-66
2023/06/17 12:08:00;;;;;;;4.73;4.33;;;27.50;38.70;;;;;;5033885;28;20464;-68
2023/06/17 12:10:29;;;;;;;5.00;4.60;;;27.50;38.30;;;;;;5031497;28;20450;-72
2023/06/17 12:12:58;;;;;;;4.83;4.43;;;27.50;38.50;;;;;;5028101;28;20995;-73
2023/06/17 12:15:29;;;;;;;4.63;4.10;;;27.50;38.80;;;;;;5034121;28;20471;-72
2023/06/17 12:18:10;;;;;;;5.43;5.03;;;27.50;38.50;;;;;;5026028;28;20457;-72
2023/06/17 12:20:48;;;;;;;4.80;4.40;;;27.50;38.80;;;;;;5013147;28;20479;-72
2023/06/17 12:23:17;;;;;;;5.03;4.70;;;27.50;39.10;;;;;;5014817;28;20605;-72
2023/06/17 12:25:46;;;;;;;4.70;4.30;;;27.50;38.50;;;;;;5032867;28;20441;-72
2023/06/17 12:28:16;;;;;;;4.57;4.27;;;27.50;38.80;;;;;;5025963;28;21056;-72
2023/06/17 12:30:45;;;;;;;5.93;4.10;;;27.60;38.70;;;;;;5037817;28;20440;-72
2023/06/17 12:33:13;;;;;;;4.20;3.80;;;27.50;38.60;;;;;;5033199;28;20514;-72
2023/06/17 12:35:44;;;;;;;4.93;4.53;;;27.60;38.50;;;;;;5031641;28;20443;-72
2023/06/17 12:38:12;;;;;;;5.37;4.97;;;27.60;38.50;;;;;;5014708;28;20469;-72
2023/06/17 12:40:41;;;;;;;5.50;5.00;;;27.60;38.20;;;;;;5026600;28;20440;-72
2023/06/17 12:43:11;;;;;;;5.40;4.20;;;27.60;38.30;;;;;;5016612;28;20500;-72
2023/06/17 12:45:41;;;;;;;4.53;4.17;;;27.60;37.80;;;;;;5021935;28;20525;-71
2023/06/17 12:48:11;;;;;;;4.70;4.40;;;27.60;38.00;;;;;;5028133;28;21028;-71
2023/06/17 12:50:40;;;;;;;4.90;4.47;;;27.60;37.50;;;;;;5023230;28;20523;-71
2023/06/17 12:53:11;;;;;;;5.10;4.70;;;27.60;38.00;;;;;;5016895;28;20447;-72
2023/06/17 12:55:39;;;;;;;5.73;4.20;;;27.60;38.10;;;;;;5041295;28;20440;-71
2023/06/17 12:58:10;;;;;;;6.77;3.90;;;27.60;37.70;;;;;;5033883;28;20979;-72
2023/06/17 13:00:40;;;;;;;4.40;4.10;;;27.60;37.20;;;;;;5038993;28;20456;-71
2023/06/17 13:03:09;;;;;;;4.57;4.27;;;27.60;37.50;;;;;;5018633;28;20466;-70
2023/06/17 13:05:38;;;;;;;3.53;3.33;;;27.60;37.30;;;;;;5040582;28;20448;-71